Time;durP1;ratioP1;P1;durP2;ratioP2;P2;SDS_P1;SDS_P2;PMS_P1;PMS_P2;Temp;Humidity;BMP_temperature;BMP_pressure;BME280_temperature;BME280_humidity;BME280_pressure;Samples;Min_cycle;Max_cycle;Signal;HPM_P1;HPM_P2
2022/07/27 00:00:44;;;;;;;4.35;1.30;;;;;;;17.22;57.81;100179.97;5110506;28;20094;-82
2022/07/27 00:03:09;;;;;;;2.33;0.88;;;;;;;17.07;59.23;100183.75;5111269;28;20062;-83
2022/07/27 00:05:34;;;;;;;4.55;1.45;;;;;;;17.00;59.84;100183.31;5111547;28;20022;-82
2022/07/27 00:08:00;;;;;;;3.22;1.02;;;;;;;16.99;59.23;100181.66;5112024;28;20022;-83
2022/07/27 00:10:25;;;;;;;9.25;1.70;;;;;;;16.93;59.41;100189.19;5107899;27;20027;-83
2022/07/27 00:12:50;;;;;;;7.43;1.33;;;;;;;17.17;59.04;100182.00;5112070;28;20058;-83
2022/07/27 00:15:16;;;;;;;5.75;1.10;;;;;;;17.29;57.57;100179.56;5112558;28;20236;-83
2022/07/27 00:17:41;;;;;;;3.03;1.08;;;;;;;17.27;58.24;100176.31;5111412;28;20725;-83
2022/07/27 00:20:07;;;;;;;4.55;0.95;;;;;;;17.27;58.29;100168.03;5109011;28;20028;-83
2022/07/27 00:22:33;;;;;;;3.22;0.90;;;;;;;17.24;58.14;100183.25;5112788;28;20405;-83
2022/07/27 00:24:58;;;;;;;4.28;0.85;;;;;;;17.30;57.97;100175.72;5111175;28;20076;-83
2022/07/27 00:27:23;;;;;;;8.10;1.27;;;;;;;17.13;59.20;100188.09;5111513;28;20018;-83
2022/07/27 00:29:48;;;;;;;2.07;0.80;;;;;;;17.00;59.68;100177.81;5094857;28;20791;-83
2022/07/27 00:32:14;;;;;;;9.10;2.63;;;;;;;16.74;60.39;100181.72;5117186;28;20261;-83
2022/07/27 00:34:39;;;;;;;3.97;0.95;;;;;;;16.70;61.05;100175.19;5116747;28;20728;-83
2022/07/27 00:37:04;;;;;;;3.87;0.73;;;;;;;16.52;62.04;100185.03;5116198;28;20090;-83
2022/07/27 00:39:30;;;;;;;2.78;0.88;;;;;;;16.69;61.96;100184.56;5117008;28;20696;-83
2022/07/27 00:41:56;;;;;;;3.00;0.73;;;;;;;16.27;63.12;100195.28;5116936;28;20019;-83
2022/07/27 00:44:29;;;;;;;5.43;1.42;;;;;;;16.21;62.41;100192.56;5103421;28;20036;-83
2022/07/27 00:46:55;;;;;;;3.43;0.90;;;;;;;16.30;62.29;100191.91;5096810;28;20101;-83
2022/07/27 00:49:21;;;;;;;4.70;1.05;;;;;;;16.56;62.31;100194.34;5095711;28;20534;-83
2022/07/27 00:51:48;;;;;;;2.40;1.17;;;;;;;16.39;62.58;100181.91;5094285;28;20020;-83
2022/07/27 00:54:14;;;;;;;14.93;2.53;;;;;;;16.36;62.52;100181.66;5096568;28;20355;-83
2022/07/27 00:56:40;;;;;;;4.05;1.33;;;;;;;16.32;63.29;100182.28;5096726;28;20031;-83
2022/07/27 00:59:07;;;;;;;2.97;0.93;;;;;;;16.66;61.14;100185.97;5095903;28;20024;-83
2022/07/27 01:01:32;;;;;;;3.22;0.80;;;;;;;16.72;60.92;100192.22;5078804;28;20077;-83
2022/07/27 01:03:58;;;;;;;6.90;1.98;;;;;;;16.66;61.45;100185.97;5096293;28;20024;-83
2022/07/27 01:06:24;;;;;;;6.45;2.55;;;;;;;16.59;62.03;100198.47;5096053;28;20038;-83
2022/07/27 01:08:50;;;;;;;3.28;1.10;;;;;;;16.64;61.75;100190.13;5075645;28;20028;-83
2022/07/27 01:11:15;;;;;;;2.60;1.17;;;;;;;16.49;62.10;100194.72;5095000;28;20107;-83
2022/07/27 01:13:41;;;;;;;6.18;1.73;;;;;;;16.39;61.70;100187.44;5094947;28;20020;-83
2022/07/27 01:16:07;;;;;;;6.30;1.00;;;;;;;16.62;61.08;100186.88;5095763;28;20039;-83
2022/07/27 01:18:37;;;;;;;3.65;0.88;;;;;;;16.60;61.06;100180.84;5095788;28;20020;-83
2022/07/27 01:21:06;;;;;;;4.35;1.17;;;;;;;16.73;62.13;100182.03;5094076;28;20357;-83
2022/07/27 01:23:33;;;;;;;5.57;0.98;;;;;;;16.60;61.51;100176.13;5095791;28;20019;-83
2022/07/27 01:26:00;;;;;;;4.00;1.10;;;;;;;16.64;61.37;100179.09;5095079;28;20035;-83
2022/07/27 01:28:25;;;;;;;1.88;1.05;;;;;;;16.62;62.27;100178.63;5093478;28;20043;-83
2022/07/27 01:30:51;;;;;;;7.30;1.35;;;;;;;16.50;63.00;100181.75;5095417;28;20103;-83
2022/07/27 01:33:17;;;;;;;4.78;0.90;;;;;;;16.61;62.50;100171.47;5095523;28;20032;-83
2022/07/27 01:35:42;;;;;;;6.32;0.85;;;;;;;16.74;61.27;100169.91;5095610;28;20104;-83
2022/07/27 01:38:09;;;;;;;3.25;0.90;;;;;;;16.46;62.69;100176.03;5093977;28;20055;-82
2022/07/27 01:40:38;;;;;;;4.35;1.05;;;;;;;16.55;63.27;100173.47;5095259;28;20020;-83
2022/07/27 01:43:04;;;;;;;5.90;1.08;;;;;;;16.50;63.04;100177.09;5094838;28;20099;-83
2022/07/27 01:45:30;;;;;;;4.38;1.45;;;;;;;16.22;64.11;100172.22;5094795;28;20118;-83
2022/07/27 01:47:55;;;;;;;1.63;0.70;;;;;;;16.36;63.25;100166.00;5094646;28;20103;-83
2022/07/27 01:50:20;;;;;;;5.30;0.90;;;;;;;15.94;64.63;100166.44;5125049;27;20425;-83
2022/07/27 01:52:46;;;;;;;4.63;0.90;;;;;;;15.73;65.58;100171.31;5136353;27;20026;-83
2022/07/27 01:55:11;;;;;;;2.92;1.00;;;;;;;15.71;66.24;100174.34;5136362;27;20504;-83
2022/07/27 01:57:37;;;;;;;2.43;1.00;;;;;;;15.64;66.50;100174.69;5135905;27;20027;-83
2022/07/27 02:00:05;;;;;;;4.10;1.17;;;;;;;15.67;66.46;100176.03;5135843;27;20348;-83
2022/07/27 02:02:31;;;;;;;3.03;0.80;;;;;;;15.54;66.99;100174.78;5135679;27;20027;-83
2022/07/27 02:04:56;;;;;;;2.28;0.88;;;;;;;15.55;67.21;100175.59;5135708;27;20064;-83
2022/07/27 02:07:21;;;;;;;4.83;1.13;;;;;;;15.79;66.30;100172.06;5135719;27;20048;-83
2022/07/27 02:09:47;;;;;;;2.87;0.90;;;;;;;15.81;66.02;100180.84;5120846;27;20799;-83
2022/07/27 02:14:55;;;;;;;4.43;0.77;;;;;;;16.05;64.81;100191.13;5111046;28;20263;-83
2022/07/27 02:17:21;;;;;;;2.40;1.15;;;;;;;15.90;65.46;100187.38;5113043;28;20024;-83
2022/07/27 02:19:47;;;;;;;4.50;1.15;;;;;;;16.08;64.95;100187.78;5113097;28;20106;-83
2022/07/27 02:22:12;;;;;;;4.30;1.58;;;;;;;15.58;66.60;100180.53;5114596;28;20031;-83
2022/07/27 02:24:38;;;;;;;5.22;1.98;;;;;;;15.37;67.63;100187.03;5114791;28;20020;-83
2022/07/27 02:27:03;;;;;;;11.02;1.88;;;;;;;15.37;67.32;100187.03;5114357;28;20019;-79
2022/07/27 02:29:29;;;;;;;3.38;1.10;;;;;;;15.79;65.21;100181.16;5115157;28;20074;-83
2022/07/27 02:31:55;;;;;;;3.67;1.02;;;;;;;15.74;66.15;100187.50;5112759;28;20483;-83
2022/07/27 02:34:20;;;;;;;9.15;1.15;;;;;;;15.55;66.53;100181.09;5113292;28;20028;-83
2022/07/27 02:36:45;;;;;;;6.00;1.00;;;;;;;15.46;67.33;100187.22;5114518;28;20016;-83
2022/07/27 02:39:11;;;;;;;4.43;1.88;;;;;;;15.69;66.31;100187.56;5115203;28;20030;-83
2022/07/27 02:41:36;;;;;;;5.47;1.45;;;;;;;15.40;67.63;100180.13;5115076;28;20061;-83
2022/07/27 02:44:02;;;;;;;3.67;1.07;;;;;;;15.04;68.60;100184.78;5114660;28;20048;-83
2022/07/27 02:46:27;;;;;;;5.45;1.90;;;;;;;15.12;68.29;100179.78;5112849;28;20255;-83
2022/07/27 02:48:52;;;;;;;2.70;0.85;;;;;;;15.08;67.87;100175.97;5114573;28;20072;-83
2022/07/27 02:51:18;;;;;;;3.80;1.17;;;;;;;14.40;71.09;100170.81;5112780;28;20153;-83
2022/07/27 02:53:43;;;;;;;2.50;1.05;;;;;;;14.52;70.97;100181.47;5115258;28;20325;-83
2022/07/27 02:56:09;;;;;;;4.95;1.55;;;;;;;13.96;72.59;100186.84;5114531;28;20027;-83
2022/07/27 02:58:35;;;;;;;4.15;1.25;;;;;;;14.30;71.03;100188.16;5112770;28;20023;-83
2022/07/27 03:01:00;;;;;;;3.42;1.40;;;;;;;14.42;71.13;100180.41;5115295;28;20484;-83
2022/07/27 03:03:25;;;;;;;3.63;1.13;;;;;;;14.19;72.03;100182.69;5114768;28;20356;-83
2022/07/27 03:05:51;;;;;;;4.18;2.28;;;;;;;14.20;72.32;100184.31;5114528;28;20055;-82
2022/07/27 03:08:16;;;;;;;4.43;1.23;;;;;;;13.90;73.09;100180.56;5115053;28;20015;-83
2022/07/27 03:10:41;;;;;;;6.07;3.13;;;;;;;13.74;73.29;100180.59;5112633;28;20106;-83
2022/07/27 03:13:06;;;;;;;5.15;1.10;;;;;;;13.83;73.62;100177.31;5114458;28;20252;-83
2022/07/27 03:15:33;;;;;;;4.83;1.50;;;;;;;13.76;73.55;100177.56;5096338;28;20034;-83
2022/07/27 03:17:58;;;;;;;4.97;1.63;;;;;;;13.57;74.31;100183.59;5114890;28;20244;-83
2022/07/27 03:20:24;;;;;;;6.60;2.60;;;;;;;13.69;73.98;100177.84;5114471;28;20028;-83
2022/07/27 03:22:49;;;;;;;6.07;2.10;;;;;;;13.78;73.98;100183.59;5114475;28;20031;-83
2022/07/27 03:25:14;;;;;;;4.70;1.52;;;;;;;13.38;75.19;100184.13;5112443;28;20028;-81
2022/07/27 03:27:39;;;;;;;4.85;1.75;;;;;;;13.57;74.66;100180.88;5113971;28;20031;-82
2022/07/27 03:30:06;;;;;;;5.82;1.77;;;;;;;13.75;74.13;100167.72;5112954;28;20027;-83
2022/07/27 03:32:31;;;;;;;4.70;1.60;;;;;;;13.76;74.50;100177.56;5111165;28;20024;-83
2022/07/27 03:34:56;;;;;;;3.50;1.13;;;;;;;13.57;74.99;100185.53;5114516;28;20027;-83
2022/07/27 03:37:22;;;;;;;5.33;2.10;;;;;;;13.40;75.72;100189.34;5117217;28;20115;-83
2022/07/27 03:39:47;;;;;;;7.25;1.70;;;;;;;13.48;75.46;100179.75;5113939;28;20266;-82
2022/07/27 03:42:12;;;;;;;2.30;1.20;;;;;;;13.38;76.63;100186.84;5118296;28;20020;-83
2022/07/27 03:44:38;;;;;;;4.25;1.77;;;;;;;13.24;76.99;100188.53;5114651;28;20258;-82
2022/07/27 03:47:03;;;;;;;5.25;2.15;;;;;;;13.53;76.10;100187.97;5097441;28;20032;-83
2022/07/27 03:49:29;;;;;;;4.93;1.40;;;;;;;13.53;75.71;100190.69;5097160;28;20028;-83
2022/07/27 03:51:54;;;;;;;2.97;1.42;;;;;;;13.33;76.76;100188.78;5097475;28;20062;-83
2022/07/27 03:54:19;;;;;;;7.38;1.55;;;;;;;13.49;76.00;100197.81;5095372;28;20032;-83
2022/07/27 03:56:45;;;;;;;3.75;1.40;;;;;;;13.46;75.80;100192.91;5097109;28;20035;-82
2022/07/27 03:59:10;;;;;;;10.32;1.67;;;;;;;13.29;76.17;100200.28;5097760;28;20016;-83
2022/07/27 04:01:35;;;;;;;5.03;1.43;;;;;;;13.30;76.59;100198.38;5098003;28;20024;-83
2022/07/27 04:04:01;;;;;;;3.72;1.52;;;;;;;13.16;76.92;100201.63;5093309;28;20818;-83
2022/07/27 04:06:26;;;;;;;5.10;1.30;;;;;;;13.21;77.35;100208.22;5075235;28;20024;-83
2022/07/27 04:08:51;;;;;;;4.68;0.95;;;;;;;13.37;76.80;100203.56;5096619;28;20449;-83
2022/07/27 04:11:17;;;;;;;4.85;2.25;;;;;;;13.37;77.07;100201.66;5093104;28;20141;-83
2022/07/27 04:13:42;;;;;;;3.65;1.30;;;;;;;13.56;76.31;100203.91;5097281;28;20360;-83
2022/07/27 04:16:08;;;;;;;4.43;1.73;;;;;;;13.62;76.65;100212.94;5096867;28;20028;-83
2022/07/27 04:18:33;;;;;;;8.98;1.00;;;;;;;13.57;76.67;100211.00;5096963;28;20024;-83
2022/07/27 04:21:00;;;;;;;7.38;1.75;;;;;;;13.40;77.03;100206.59;5108736;28;20023;-83
2022/07/27 04:23:26;;;;;;;6.20;1.75;;;;;;;13.47;78.04;100205.50;5117145;28;20031;-83
2022/07/27 04:25:51;;;;;;;5.35;1.90;;;;;;;13.53;77.01;100209.88;5116726;28;20020;-82
2022/07/27 04:28:16;;;;;;;5.70;1.83;;;;;;;13.74;76.63;100209.91;5116444;28;20051;-82
2022/07/27 04:30:42;;;;;;;5.30;1.95;;;;;;;13.55;77.58;100213.19;5117174;28;20274;-83
2022/07/27 04:33:07;;;;;;;16.80;2.38;;;;;;;13.80;76.73;100216.19;5117127;28;20019;-82
2022/07/27 04:35:32;;;;;;;4.68;1.42;;;;;;;13.73;76.15;100224.72;5117467;28;20023;-83
2022/07/27 04:37:57;;;;;;;3.08;1.40;;;;;;;13.98;76.13;100220.28;5117257;28;20027;-82
2022/07/27 04:40:23;;;;;;;4.63;1.25;;;;;;;14.34;74.66;100228.44;5117011;28;20086;-83
2022/07/27 04:42:48;;;;;;;7.72;2.65;;;;;;;14.51;73.81;100221.78;5116797;28;20057;-83
2022/07/27 04:45:14;;;;;;;6.33;1.67;;;;;;;14.55;73.93;100217.38;5116959;28;20355;-84
2022/07/27 04:47:40;;;;;;;6.20;1.67;;;;;;;14.67;73.48;100218.97;5114681;27;20243;-83
2022/07/27 04:50:05;;;;;;;5.73;1.63;;;;;;;14.56;74.24;100224.50;5116627;28;20460;-83
2022/07/27 04:52:31;;;;;;;5.25;1.85;;;;;;;14.52;73.77;100233.59;5116400;28;20248;-83
2022/07/27 04:54:56;;;;;;;5.35;2.70;;;;;;;14.59;73.63;100220.38;5113899;28;20034;-83
2022/07/27 04:57:24;;;;;;;7.25;2.22;;;;;;;14.48;74.19;100230.59;5116794;28;20027;-84
2022/07/27 04:59:49;;;;;;;6.50;2.00;;;;;;;14.72;73.92;100221.72;5116760;28;20032;-84
2022/07/27 05:02:15;;;;;;;7.43;2.27;;;;;;;14.40;74.10;100228.44;5116978;28;20441;-84
2022/07/27 05:04:40;;;;;;;7.30;2.30;;;;;;;14.14;75.09;100226.56;5116772;28;20244;-84
2022/07/27 05:07:05;;;;;;;9.13;2.83;;;;;;;14.19;75.43;100225.72;5116419;28;20028;-83
2022/07/27 05:09:30;;;;;;;6.17;2.10;;;;;;;14.17;75.92;100233.41;5116955;28;20169;-84
2022/07/27 05:11:56;;;;;;;22.70;3.43;;;;;;;14.21;74.40;100231.75;5116773;28;20251;-84
2022/07/27 05:14:22;;;;;;;8.07;2.13;;;;;;;13.95;76.04;100229.88;5116236;28;20260;-84
2022/07/27 05:16:48;;;;;;;5.72;2.63;;;;;;;14.24;75.38;100233.94;5115180;28;20260;-84
2022/07/27 05:19:13;;;;;;;5.93;2.28;;;;;;;14.57;74.25;100237.13;5115269;28;20088;-84
2022/07/27 05:21:38;;;;;;;5.80;2.47;;;;;;;14.53;73.47;100240.72;5114211;28;20448;-84
2022/07/27 05:24:04;;;;;;;7.50;2.73;;;;;;;14.51;73.91;100235.50;5115943;28;20256;-84
2022/07/27 05:26:29;;;;;;;9.70;4.13;;;;;;;14.54;73.25;100247.84;5114100;28;20236;-84
2022/07/27 05:28:54;;;;;;;7.03;3.03;;;;;;;14.71;72.48;100233.78;5114074;28;20082;-84
2022/07/27 05:31:20;;;;;;;8.77;2.47;;;;;;;14.85;71.97;100238.72;5116450;28;20031;-83
2022/07/27 05:33:45;;;;;;;7.40;1.92;;;;;;;14.97;70.67;100239.16;5115744;28;20255;-83
2022/07/27 05:36:10;;;;;;;9.18;2.50;;;;;;;14.97;70.57;100244.66;5115890;28;20058;-84
2022/07/27 05:38:39;;;;;;;5.60;2.20;;;;;;;15.23;69.85;100241.78;5115766;28;20027;-84
2022/07/27 05:41:09;;;;;;;7.50;3.50;;;;;;;15.29;69.56;100250.81;5092951;28;20596;-84
2022/07/27 05:43:35;;;;;;;6.90;2.55;;;;;;;15.35;69.41;100237.84;5093218;28;20028;-84
2022/07/27 05:46:00;;;;;;;8.90;2.85;;;;;;;15.19;70.79;100248.94;5095832;28;20110;-84
2022/07/27 05:48:26;;;;;;;5.07;2.45;;;;;;;15.44;70.46;100247.13;5095720;28;20031;-84
2022/07/27 05:50:51;;;;;;;6.22;2.38;;;;;;;15.54;69.08;100248.16;5095156;28;20016;-84
2022/07/27 05:53:17;;;;;;;7.00;2.70;;;;;;;15.58;69.37;100258.28;5089175;28;20133;-83
2022/07/27 05:55:42;;;;;;;10.18;2.88;;;;;;;15.73;68.71;100268.34;5098105;28;20348;-83
2022/07/27 05:58:07;;;;;;;8.63;1.98;;;;;;;15.92;68.61;100259.41;5109694;28;20114;-84
2022/07/27 06:00:33;;;;;;;5.43;2.87;;;;;;;15.87;68.89;100256.66;5103695;27;20024;-81
2022/07/27 06:02:58;;;;;;;9.52;3.38;;;;;;;15.72;69.30;100252.94;5094892;28;20709;-84
2022/07/27 06:05:23;;;;;;;6.93;2.70;;;;;;;15.60;68.75;100250.56;5093505;28;20024;-84
2022/07/27 06:07:57;;;;;;;12.68;2.15;;;;;;;15.81;66.15;100252.31;5094623;28;20240;-84
2022/07/27 06:10:24;;;;;;;7.93;1.67;;;;;;;15.91;66.65;100254.16;5092888;28;20020;-85
2022/07/27 06:12:49;;;;;;;4.03;1.38;;;;;;;15.92;66.62;100262.13;5096004;28;20125;-84
2022/07/27 06:15:16;;;;;;;5.13;2.03;;;;;;;16.01;65.66;100259.56;5111756;28;20032;-84
2022/07/27 06:17:41;;;;;;;5.18;0.82;;;;;;;16.13;65.33;100266.66;5109706;28;20255;-83
2022/07/27 06:20:08;;;;;;;5.72;0.93;;;;;;;15.87;65.88;100263.00;5101196;28;20456;-83
2022/07/27 06:22:53;;;;;;;4.55;1.33;;;;;;;16.16;65.51;100263.31;5090651;28;20020;-84
2022/07/27 06:25:19;;;;;;;5.07;1.33;;;;;;;16.25;64.92;100266.25;5093166;28;20032;-84
2022/07/27 06:27:44;;;;;;;5.65;1.30;;;;;;;16.28;64.69;100271.16;5089417;28;20031;-84
2022/07/27 06:30:12;;;;;;;5.45;1.48;;;;;;;16.38;64.27;100273.81;5095793;28;20028;-84
2022/07/27 06:32:38;;;;;;;2.28;0.80;;;;;;;16.41;64.52;100276.00;5092673;28;20449;-84
2022/07/27 06:35:04;;;;;;;4.63;0.93;;;;;;;16.28;63.14;100268.41;5094829;28;20024;-83
2022/07/27 06:37:30;;;;;;;7.57;1.83;;;;;;;16.17;63.44;100279.53;5091695;28;20024;-85
2022/07/27 06:39:59;;;;;;;2.47;0.88;;;;;;;16.22;63.62;100271.22;5091720;28;20107;-87
2022/07/27 06:42:25;;;;;;;3.35;1.63;;;;;;;16.40;63.61;100277.09;5094696;28;20063;-84
2022/07/27 06:44:51;;;;;;;3.10;0.60;;;;;;;16.41;63.40;100272.41;5090163;28;20069;-84
2022/07/27 06:47:17;;;;;;;6.68;1.67;;;;;;;16.25;62.91;100266.25;5090728;28;20027;-84
2022/07/27 06:49:42;;;;;;;6.45;1.15;;;;;;;16.33;62.96;100277.44;5091345;28;20085;-84
2022/07/27 06:52:07;;;;;;;2.47;0.82;;;;;;;16.45;61.22;100273.47;5090818;28;20107;-88
2022/07/27 06:54:33;;;;;;;4.30;1.50;;;;;;;16.57;61.76;100275.81;5094223;28;20114;-88
2022/07/27 06:56:58;;;;;;;5.20;0.98;;;;;;;16.82;61.55;100276.59;5112724;28;20031;-87
2022/07/27 06:59:24;;;;;;;1.73;0.82;;;;;;;16.82;60.73;100281.31;5114765;28;20020;-89
2022/07/27 07:01:49;;;;;;;4.65;1.63;;;;;;;16.88;60.27;100275.41;5113070;28;20023;-90
2022/07/27 07:04:14;;;;;;;5.07;0.85;;;;;;;16.90;60.67;100275.94;5115223;28;20030;-91
2022/07/27 07:06:40;;;;;;;1.75;0.52;;;;;;;16.91;59.93;100274.84;5114907;28;20337;-91
2022/07/27 07:09:05;;;;;;;2.95;0.73;;;;;;;16.87;60.25;100273.78;5112394;28;20055;-93
2022/07/27 07:11:30;;;;;;;2.90;1.10;;;;;;;17.12;59.15;100263.59;5116673;28;20066;-89
2022/07/27 07:13:56;;;;;;;3.17;0.45;;;;;;;16.97;59.08;100278.34;5119463;28;20088;-90
2022/07/27 07:16:21;;;;;;;2.67;1.05;;;;;;;16.99;58.87;100275.28;5118766;28;20055;-93
2022/07/27 07:18:46;;;;;;;2.80;0.83;;;;;;;17.24;59.03;100276.91;5119419;28;20026;-92
2022/07/27 07:21:14;;;;;;;7.25;1.45;;;;;;;17.56;57.82;100277.28;5119026;28;20293;-83
2022/07/27 07:23:39;;;;;;;2.72;0.85;;;;;;;17.48;57.95;100277.94;5115567;28;20035;-85
2022/07/27 07:26:05;;;;;;;4.97;0.97;;;;;;;17.35;57.66;100277.56;5118427;28;20024;-83
2022/07/27 07:28:30;;;;;;;2.10;0.77;;;;;;;17.40;58.64;100279.44;5118447;28;20359;-83
2022/07/27 07:30:56;;;;;;;6.82;2.17;;;;;;;17.41;58.60;100283.81;5118392;28;20440;-83
2022/07/27 07:33:21;;;;;;;5.18;1.05;;;;;;;17.48;57.80;100280.69;5101933;28;20031;-86
2022/07/27 07:35:46;;;;;;;3.22;1.15;;;;;;;17.20;57.70;100291.59;5095547;28;20036;-83
2022/07/27 07:38:12;;;;;;;6.07;1.25;;;;;;;17.42;56.81;100287.41;5098233;28;20035;-91
2022/07/27 07:40:37;;;;;;;3.03;0.80;;;;;;;17.37;56.84;100286.38;5098775;28;20028;-86
2022/07/27 07:43:04;;;;;;;4.57;1.30;;;;;;;17.37;56.37;100288.31;5097548;28;20321;-86
2022/07/27 07:45:32;;;;;;;3.20;0.60;;;;;;;17.53;56.25;100290.84;5088032;28;20134;-85
2022/07/27 07:47:58;;;;;;;2.38;0.70;;;;;;;17.66;56.39;100283.72;5089871;28;20039;-85
2022/07/27 07:50:24;;;;;;;3.33;0.63;;;;;;;17.55;56.62;100286.66;5092003;28;20028;-83
2022/07/27 07:52:51;;;;;;;5.05;1.33;;;;;;;17.39;57.33;100288.81;5089528;28;20067;-85
2022/07/27 07:55:21;;;;;;;2.65;1.15;;;;;;;17.60;56.35;100285.75;5092286;28;20032;-86
2022/07/27 07:57:47;;;;;;;4.25;1.33;;;;;;;17.72;56.58;100290.81;5095131;28;20032;-85
2022/07/27 08:00:13;;;;;;;2.33;0.68;;;;;;;17.70;57.43;100287.53;5092385;28;20069;-85
2022/07/27 08:02:52;;;;;;;6.75;1.23;;;;;;;17.71;56.22;100290.00;5096648;28;20133;-85
2022/07/27 08:05:19;;;;;;;5.03;1.02;;;;;;;17.79;55.90;100280.22;5112732;28;20030;-89
2022/07/27 08:07:45;;;;;;;1.42;0.85;;;;;;;17.98;54.41;100287.59;5116503;28;20072;-86
2022/07/27 08:10:12;;;;;;;5.90;0.95;;;;;;;17.94;54.65;100281.09;5097445;28;20032;-84
2022/07/27 08:12:40;;;;;;;6.35;1.33;;;;;;;17.70;55.06;100282.00;5102040;28;20059;-85
2022/07/27 08:15:07;;;;;;;2.33;0.60;;;;;;;17.96;54.09;100273.31;5109689;28;20876;-85
2022/07/27 08:17:33;;;;;;;5.45;1.25;;;;;;;18.19;54.70;100276.25;5109301;28;20027;-84
2022/07/27 08:19:58;;;;;;;2.25;0.57;;;;;;;18.61;53.44;100269.97;5106149;28;20365;-85
2022/07/27 08:22:24;;;;;;;6.63;0.70;;;;;;;18.54;54.47;100282.22;5109282;28;20437;-85
2022/07/27 08:24:49;;;;;;;3.70;0.60;;;;;;;18.43;51.70;100275.25;5107802;28;20031;-85
2022/07/27 08:27:15;;;;;;;1.92;0.50;;;;;;;18.05;50.88;100281.72;5108165;28;20080;-86
2022/07/27 08:29:40;;;;;;;2.90;0.60;;;;;;;18.34;52.61;100285.38;5101723;28;20042;-86
2022/07/27 08:32:07;;;;;;;1.77;0.50;;;;;;;18.66;51.54;100283.66;5088148;28;20032;-84
2022/07/27 08:34:32;;;;;;;3.78;1.73;;;;;;;18.75;50.94;100279.03;5069139;28;20177;-85
2022/07/27 08:36:57;;;;;;;4.05;0.57;;;;;;;18.41;49.55;100286.59;5088149;28;20115;-85
2022/07/27 08:39:24;;;;;;;6.97;1.10;;;;;;;18.52;51.12;100284.47;5090627;28;20027;-85
2022/07/27 08:41:52;;;;;;;3.70;0.95;;;;;;;18.78;51.18;100286.72;5094516;28;20252;-85
2022/07/27 08:44:21;;;;;;;4.97;0.95;;;;;;;18.66;49.04;100286.41;5109538;27;20024;-86
2022/07/27 08:46:47;;;;;;;1.73;0.50;;;;;;;18.93;49.12;100281.16;5108097;28;20488;-87
2022/07/27 08:49:13;;;;;;;2.45;0.55;;;;;;;19.02;47.76;100282.91;5107089;27;20024;-86
2022/07/27 08:51:38;;;;;;;2.78;0.85;;;;;;;18.90;48.58;100282.59;5088980;28;20390;-86
2022/07/27 08:54:04;;;;;;;2.78;0.60;;;;;;;18.83;48.19;100282.22;5088616;28;20384;-86
2022/07/27 08:56:29;;;;;;;1.23;0.45;;;;;;;18.87;47.48;100283.22;5088832;28;20031;-86
2022/07/27 08:58:55;;;;;;;5.93;0.70;;;;;;;18.87;44.25;100291.50;5090472;28;20035;-87
2022/07/27 09:01:20;;;;;;;4.50;0.68;;;;;;;19.12;45.23;100286.53;5108281;28;20087;-84
2022/07/27 09:03:46;;;;;;;2.60;0.60;;;;;;;18.77;45.31;100279.53;5108533;28;20058;-86
2022/07/27 09:06:12;;;;;;;1.63;0.60;;;;;;;18.77;46.99;100285.06;5109093;28;20110;-84
2022/07/27 09:08:40;;;;;;;3.88;0.90;;;;;;;19.08;46.19;100283.59;5108733;28;20118;-86
2022/07/27 09:11:15;;;;;;;0.75;0.35;;;;;;;19.35;47.75;100286.63;5089944;27;20036;-86
2022/07/27 09:13:41;;;;;;;3.47;1.02;;;;;;;19.65;46.40;100286.22;5088316;28;20036;-86
2022/07/27 09:16:08;;;;;;;3.75;0.73;;;;;;;19.70;45.20;100284.16;5101151;28;20046;-86
2022/07/27 09:18:36;;;;;;;4.72;0.80;;;;;;;19.65;45.34;100277.94;5107529;28;20032;-86
2022/07/27 09:21:16;;;;;;;5.28;0.60;;;;;;;19.22;44.18;100283.59;5094495;27;20062;-86
2022/07/27 09:23:47;;;;;;;1.67;0.40;;;;;;;19.52;44.29;100293.44;5086692;28;20034;-87
2022/07/27 09:26:18;;;;;;;2.83;0.85;;;;;;;19.51;43.92;100294.56;5088330;28;20655;-87
2022/07/27 09:28:44;;;;;;;2.92;0.90;;;;;;;19.51;44.86;100284.31;5089084;28;20100;-87
2022/07/27 09:31:14;;;;;;;2.33;0.70;;;;;;;19.59;44.33;100291.88;5094843;28;20111;-88
2022/07/27 09:33:48;;;;;;;1.13;0.45;;;;;;;19.52;44.65;100293.44;5088868;28;20046;-86
2022/07/27 09:36:15;;;;;;;2.15;0.60;;;;;;;19.68;44.86;100288.34;5069957;28;20123;-86
2022/07/27 09:39:07;;;;;;;2.78;0.40;;;;;;;19.39;44.69;100293.16;5088062;28;20036;-86
2022/07/27 09:41:44;;;;;;;2.78;0.90;;;;;;;19.63;45.43;100292.06;5091220;28;20061;-87
2022/07/27 09:44:10;;;;;;;0.93;0.43;;;;;;;19.55;43.83;100288.09;5108074;28;20304;-86
2022/07/27 09:46:41;;;;;;;2.38;0.57;;;;;;;19.40;44.38;100292.06;5108068;28;20030;-86
2022/07/27 09:49:28;;;;;;;1.25;0.43;;;;;;;19.32;44.53;100295.56;5106336;28;20121;-87
2022/07/27 09:51:55;;;;;;;2.20;0.57;;;;;;;19.47;44.68;100299.91;5087716;28;20034;-84
2022/07/27 09:54:20;;;;;;;4.40;0.77;;;;;;;19.37;44.95;100295.44;5087791;28;20035;-87
2022/07/27 09:56:58;;;;;;;4.63;1.00;;;;;;;19.79;44.22;100294.47;5087448;28;20032;-87
2022/07/27 09:59:24;;;;;;;1.85;0.52;;;;;;;19.97;43.67;100294.56;5090799;28;20023;-86
2022/07/27 10:01:49;;;;;;;4.80;1.38;;;;;;;19.66;41.96;100296.16;5069216;28;20149;-87
2022/07/27 10:04:15;;;;;;;5.22;1.10;;;;;;;19.70;42.22;100299.91;5087314;28;20028;-86
2022/07/27 10:06:41;;;;;;;1.05;0.30;;;;;;;19.77;43.35;100302.25;5087468;28;20118;-86
2022/07/27 10:09:07;;;;;;;1.38;0.57;;;;;;;19.66;42.42;100299.75;5092150;27;20038;-84
2022/07/27 10:11:32;;;;;;;2.00;0.70;;;;;;;20.06;43.14;100301.78;5090280;28;20110;-86
2022/07/27 10:13:59;;;;;;;2.03;0.50;;;;;;;20.02;41.83;100297.19;5107797;28;20252;-86
2022/07/27 10:16:27;;;;;;;2.60;0.80;;;;;;;19.99;43.43;100295.91;5107916;28;20481;-86
2022/07/27 10:19:07;;;;;;;9.10;1.02;;;;;;;20.15;42.42;100296.34;5107180;28;20076;-87
2022/07/27 10:21:36;;;;;;;2.25;0.70;;;;;;;20.26;42.75;100296.03;5107685;28;20468;-86
2022/07/27 10:24:08;;;;;;;3.47;0.55;;;;;;;20.48;42.34;100292.41;5107358;28;20031;-85
2022/07/27 10:26:38;;;;;;;1.17;0.50;;;;;;;20.79;42.64;100292.69;5107348;28;20480;-87
2022/07/27 10:29:13;;;;;;;3.30;0.77;;;;;;;21.07;42.38;100296.03;5107114;28;20058;-88
2022/07/27 10:31:41;;;;;;;3.10;0.70;;;;;;;21.54;42.18;100291.81;5089941;28;20053;-86
2022/07/27 10:34:10;;;;;;;6.45;0.82;;;;;;;21.63;40.50;100294.59;5108552;28;20040;-86
2022/07/27 10:36:48;;;;;;;4.00;0.95;;;;;;;21.42;41.19;100295.25;5090253;28;20018;-87
2022/07/27 10:39:25;;;;;;;4.97;0.55;;;;;;;21.31;41.65;100288.41;5106928;28;20042;-84
2022/07/27 10:41:51;;;;;;;3.08;0.65;;;;;;;21.49;41.49;100299.47;5108276;28;20192;-86
2022/07/27 10:44:24;;;;;;;1.73;0.90;;;;;;;21.08;42.73;100296.84;5107046;28;20048;-87
2022/07/27 10:46:58;;;;;;;0.95;0.47;;;;;;;21.15;42.95;100302.75;5111045;28;20039;-87
2022/07/27 10:49:26;;;;;;;1.98;0.50;;;;;;;21.20;42.86;100298.97;5110446;27;20084;-83
2022/07/27 10:51:53;;;;;;;3.90;1.02;;;;;;;21.34;42.67;100299.66;5110925;28;20582;-87
2022/07/27 10:54:21;;;;;;;5.38;0.90;;;;;;;21.20;42.57;100310.06;5111629;28;20054;-86
2022/07/27 10:56:48;;;;;;;3.22;0.82;;;;;;;21.04;43.17;100302.22;5100144;28;20040;-87
2022/07/27 10:59:14;;;;;;;2.80;0.98;;;;;;;20.92;42.51;100304.78;5103454;28;20028;-86
2022/07/27 11:01:56;;;;;;;1.55;1.10;;;;;;;20.92;42.34;100304.78;5094926;28;20039;-84
2022/07/27 11:04:22;;;;;;;2.63;0.80;;;;;;;21.03;42.31;100305.31;5090609;28;20494;-88
2022/07/27 11:06:54;;;;;;;3.58;0.90;;;;;;;20.79;41.73;100299.03;5098156;28;20134;-88
2022/07/27 11:09:20;;;;;;;2.67;0.80;;;;;;;20.97;42.40;100294.38;5094841;28;20030;-85
2022/07/27 11:11:47;;;;;;;1.77;0.40;;;;;;;21.57;41.10;100285.63;5111014;28;20106;-86
2022/07/27 11:14:12;;;;;;;2.00;0.50;;;;;;;21.63;40.56;100293.75;5110639;28;20028;-85
2022/07/27 11:16:38;;;;;;;6.30;0.90;;;;;;;22.18;39.83;100296.13;5110602;28;20376;-87
2022/07/27 11:19:05;;;;;;;28.38;1.67;;;;;;;22.33;39.27;100283.69;5091762;28;20287;-86
2022/07/27 11:21:36;;;;;;;7.43;1.55;;;;;;;22.03;39.22;100285.25;5110689;28;20486;-87
2022/07/27 11:24:11;;;;;;;3.65;1.10;;;;;;;21.96;39.61;100293.28;5110573;28;20019;-87